createdAt,value
2023-11-22T00:02:28.154Z,15.50
2023-11-22T00:05:51.351Z,14.60
2023-11-22T00:09:25.532Z,14.60
2023-11-22T00:12:59.977Z,14.00
2023-11-22T00:16:12.877Z,13.30
2023-11-22T00:19:54.758Z,13.10
2023-11-22T00:23:21.081Z,14.20
2023-11-22T00:26:34.210Z,15.10
2023-11-22T00:30:04.522Z,14.20
2023-11-22T00:33:43.421Z,13.80
2023-11-22T00:37:13.131Z,14.50
2023-11-22T00:40:43.912Z,13.20
2023-11-22T00:43:52.291Z,14.70
2023-11-22T00:47:10.231Z,13.70
2023-11-22T00:50:22.106Z,14.40
2023-11-22T00:54:01.006Z,13.50
2023-11-22T00:57:28.223Z,14.10
2023-11-22T01:00:49.968Z,14.60
2023-11-22T01:04:30.906Z,14.10
2023-11-22T01:08:18.849Z,14.60
2023-11-22T01:11:45.572Z,14.80
2023-11-22T01:15:09.721Z,13.90
2023-11-22T01:18:49.687Z,14.10
2023-11-22T01:22:31.893Z,13.20
2023-11-22T01:25:37.964Z,12.90
2023-11-22T01:29:01.388Z,14.00
2023-11-22T01:32:10.287Z,13.80
2023-11-22T01:35:41.365Z,13.70
2023-11-22T01:39:29.893Z,12.50
2023-11-22T01:43:03.950Z,12.80
2023-11-22T01:46:38.023Z,12.70
2023-11-22T01:50:19.571Z,14.70
2023-11-22T01:53:56.936Z,14.20
2023-11-22T01:57:13.375Z,13.70
2023-11-22T02:00:46.954Z,14.80
2023-11-22T02:04:02.713Z,15.50
2023-11-22T02:07:27.604Z,14.10
2023-11-22T02:10:54.471Z,15.50
2023-11-22T02:13:46.342Z,14.80
2023-11-22T02:17:01.840Z,14.20
2023-11-22T02:20:16.700Z,14.00
2023-11-22T02:23:34.487Z,14.60
2023-11-22T02:26:38.367Z,14.20
2023-11-22T02:29:30.618Z,15.50
2023-11-22T02:32:28.277Z,15.30
2023-11-22T02:36:10.397Z,15.10
2023-11-22T02:39:07.762Z,15.20
2023-11-22T02:42:22.719Z,14.70
2023-11-22T02:45:32.143Z,13.90
2023-11-22T02:48:58.609Z,13.40
2023-11-22T02:52:15.772Z,15.70
2023-11-22T02:55:34.614Z,14.30
2023-11-22T02:58:27.317Z,14.40
2023-11-22T03:01:39.327Z,14.10
2023-11-22T03:04:36.379Z,14.00
2023-11-22T03:07:31.575Z,14.10
2023-11-22T03:10:43.305Z,15.00
2023-11-22T03:13:49.656Z,14.80
2023-11-22T03:16:48.426Z,13.90
2023-11-22T03:19:57.202Z,15.10
2023-11-22T03:22:44.632Z,17.90
2023-11-22T03:25:44.376Z,14.50
2023-11-22T03:28:34.334Z,14.20
2023-11-22T03:31:48.175Z,16.40
2023-11-22T03:35:03.116Z,13.80
2023-11-22T03:38:21.083Z,14.20
2023-11-22T03:40:54.767Z,13.30
2023-11-22T03:43:56.636Z,13.90
2023-11-22T03:47:09.993Z,14.50
2023-11-22T03:50:18.772Z,15.50
2023-11-22T03:53:54.211Z,14.80
2023-11-22T03:57:27.045Z,12.80
2023-11-22T04:01:04.848Z,13.60
2023-11-22T04:04:11.404Z,13.00
2023-11-22T04:07:30.925Z,13.20
2023-11-22T04:10:37.001Z,13.00
2023-11-22T04:13:53.258Z,13.20
2023-11-22T04:17:20.381Z,13.00
2023-11-22T04:20:10.183Z,12.70
2023-11-22T04:23:46.363Z,13.70
2023-11-22T04:27:03.282Z,14.00
2023-11-22T04:30:18.134Z,13.20
2023-11-22T04:33:33.360Z,12.70
2023-11-22T04:36:50.960Z,13.30
2023-11-22T04:39:50.971Z,12.30
2023-11-22T04:42:53.420Z,12.40
2023-11-22T04:45:56.930Z,13.10
2023-11-22T04:48:39.534Z,13.80
2023-11-22T04:51:35.790Z,13.10
2023-11-22T04:54:58.775Z,12.80
2023-11-22T04:57:41.969Z,12.90
2023-11-22T05:01:01.156Z,13.60
2023-11-22T05:04:07.726Z,13.10
2023-11-22T05:07:04.506Z,13.60
2023-11-22T05:10:00.821Z,12.60
2023-11-22T05:13:01.454Z,12.80
2023-11-22T05:16:29.213Z,11.80
2023-11-22T05:19:17.376Z,14.10
2023-11-22T05:22:12.295Z,14.20
2023-11-22T05:25:17.413Z,14.40
2023-11-22T05:28:48.500Z,13.40
2023-11-22T05:31:56.106Z,12.80
2023-11-22T05:35:14.104Z,12.30
2023-11-22T05:38:20.021Z,12.90
2023-11-22T05:41:51.094Z,14.30
2023-11-22T05:44:32.921Z,12.60
2023-11-22T05:47:19.809Z,14.20
2023-11-22T05:49:50.697Z,12.70
2023-11-22T05:53:13.699Z,12.20
2023-11-22T05:56:14.348Z,11.80
2023-11-22T05:59:39.893Z,11.90
2023-11-22T06:02:41.881Z,12.70
2023-11-22T06:05:49.945Z,10.70
2023-11-22T06:09:19.135Z,11.50
2023-11-22T06:12:29.303Z,10.20
2023-11-22T06:15:08.948Z,11.80
2023-11-22T06:18:02.286Z,10.20
2023-11-22T06:20:32.609Z,10.60
2023-11-22T06:23:09.804Z,12.40
2023-11-22T06:26:01.439Z,11.70
2023-11-22T06:28:39.886Z,17.60
2023-11-22T06:31:21.179Z,20.40
2023-11-22T06:33:50.785Z,15.60
2023-11-22T06:39:49.986Z,12.50
2023-11-22T06:42:26.495Z,12.00
2023-11-22T06:45:20.544Z,12.70
2023-11-22T06:47:54.281Z,12.40
2023-11-22T06:50:25.896Z,13.10
2023-11-22T06:53:27.509Z,12.40
2023-11-22T06:56:15.989Z,11.70
2023-11-22T06:59:02.931Z,12.00
2023-11-22T07:01:34.442Z,11.80
2023-11-22T07:04:05.395Z,12.70
2023-11-22T07:06:33.233Z,13.00
2023-11-22T07:09:01.014Z,11.10
2023-11-22T07:11:42.849Z,10.60
2023-11-22T07:14:30.634Z,9.30
2023-11-22T07:17:12.714Z,10.40
2023-11-22T07:19:48.234Z,10.60
2023-11-22T07:22:23.767Z,9.10
2023-11-22T07:25:26.285Z,10.00
2023-11-22T07:28:03.375Z,9.80
2023-11-22T07:30:34.552Z,9.10
2023-11-22T07:33:27.412Z,9.10
2023-11-22T07:36:06.851Z,8.60
2023-11-22T07:39:20.583Z,8.90
2023-11-22T07:42:01.322Z,11.20
2023-11-22T07:44:38.688Z,9.10
2023-11-22T07:47:27.845Z,8.50
2023-11-22T07:50:47.870Z,10.60
2023-11-22T07:53:41.031Z,9.10
2023-11-22T07:56:47.298Z,8.20
2023-11-22T08:00:09.045Z,8.00
2023-11-22T08:02:56.027Z,7.50
2023-11-22T08:05:47.377Z,7.20
2023-11-22T08:09:13.548Z,7.50
2023-11-22T08:12:06.336Z,8.70
2023-11-22T08:14:39.996Z,8.80
2023-11-22T08:17:10.652Z,9.50
2023-11-22T08:22:14.662Z,9.50
2023-11-22T08:24:47.645Z,9.70
2023-11-22T08:27:28.994Z,9.30
2023-11-22T08:30:23.302Z,9.20
2023-11-22T08:33:15.736Z,8.80
2023-11-22T08:35:56.011Z,8.70
2023-11-22T08:38:34.676Z,8.80
2023-11-22T08:41:15.454Z,9.30
2023-11-22T08:48:22.131Z,8.20
2023-11-22T08:51:08.009Z,7.90
2023-11-22T08:53:38.649Z,8.50
2023-11-22T08:56:29.522Z,8.60
2023-11-22T08:59:13.402Z,7.40
2023-11-22T09:02:55.032Z,7.30
2023-11-22T09:06:19.855Z,8.00
2023-11-22T09:09:42.188Z,7.80
2023-11-22T09:12:49.154Z,9.10
2023-11-22T09:16:00.568Z,9.40
2023-11-22T09:18:55.949Z,8.00
2023-11-22T09:22:18.831Z,8.70
2023-11-22T09:25:40.672Z,7.80
2023-11-22T09:28:39.529Z,7.50
2023-11-22T09:31:21.462Z,7.70
2023-11-22T09:33:53.640Z,7.20
2023-11-22T09:36:27.241Z,8.10
2023-11-22T09:38:55.410Z,7.70
2023-11-22T09:41:23.435Z,7.80
2023-11-22T09:43:51.236Z,8.40
2023-11-22T09:46:45.198Z,7.80
2023-11-22T09:49:28.580Z,7.90
2023-11-22T09:52:04.486Z,7.10
2023-11-22T09:54:34.874Z,7.20
2023-11-22T09:57:42.000Z,6.70
2023-11-22T10:00:38.486Z,7.70
2023-11-22T10:03:16.551Z,7.00
2023-11-22T10:06:01.067Z,7.60
2023-11-22T10:08:31.429Z,9.00
2023-11-22T10:11:29.337Z,8.90
2023-11-22T10:14:33.718Z,8.50
2023-11-22T10:17:21.290Z,8.30
2023-11-22T10:20:31.827Z,7.90
2023-11-22T10:23:58.490Z,7.60
2023-11-22T10:27:01.458Z,6.90
2023-11-22T10:29:53.629Z,6.70
2023-11-22T10:32:25.759Z,7.20
2023-11-22T10:35:49.766Z,7.50
2023-11-22T10:39:17.517Z,7.60
2023-11-22T10:42:20.591Z,8.90
2023-11-22T10:45:30.485Z,7.70
2023-11-22T10:48:22.133Z,8.70
2023-11-22T10:51:18.092Z,7.10
2023-11-22T10:54:05.493Z,6.50
2023-11-22T10:56:52.777Z,7.10
2023-11-22T10:59:29.403Z,7.60
2023-11-22T11:02:07.930Z,7.50
2023-11-22T11:05:11.220Z,6.70
2023-11-22T11:08:27.443Z,6.50
2023-11-22T11:11:47.800Z,6.70
2023-11-22T11:15:06.820Z,6.40
2023-11-22T11:18:06.162Z,5.90
2023-11-22T11:21:40.576Z,5.90
2023-11-22T11:24:29.238Z,6.50
2023-11-22T11:27:20.712Z,6.30
2023-11-22T11:30:11.803Z,6.70
2023-11-22T11:32:42.911Z,6.50
2023-11-22T11:35:22.579Z,6.80
2023-11-22T11:38:10.863Z,6.50
2023-11-22T11:40:58.508Z,7.30
2023-11-22T11:43:55.474Z,6.90
2023-11-22T11:47:20.493Z,5.30
2023-11-22T11:50:04.910Z,6.40
2023-11-22T11:52:55.605Z,6.40
2023-11-22T11:55:50.626Z,6.10
2023-11-22T11:58:32.950Z,6.00
2023-11-22T12:01:01.897Z,6.60
2023-11-22T12:03:37.175Z,6.20
2023-11-22T12:06:08.306Z,6.50
2023-11-22T12:13:49.570Z,6.30
2023-11-22T12:16:51.017Z,6.20
2023-11-22T12:19:56.258Z,6.30
2023-11-22T12:22:29.225Z,5.70
2023-11-22T12:24:57.702Z,5.80
2023-11-22T12:27:26.215Z,5.70
2023-11-22T12:29:54.893Z,6.40
2023-11-22T12:32:26.012Z,6.60
2023-11-22T12:34:58.606Z,6.20
2023-11-22T12:38:08.709Z,6.40
2023-11-22T12:41:11.041Z,6.10
2023-11-22T12:43:49.021Z,6.80
2023-11-22T12:46:36.411Z,7.00
2023-11-22T12:49:07.895Z,7.20
2023-11-22T12:52:06.762Z,6.50
2023-11-22T12:55:14.873Z,6.30
2023-11-22T12:57:46.782Z,7.00
2023-11-22T13:00:17.797Z,6.50
2023-11-22T13:03:06.447Z,7.00
2023-11-22T13:05:35.113Z,6.90
2023-11-22T13:08:04.994Z,7.30
2023-11-22T13:10:40.523Z,6.30
2023-11-22T13:13:29.368Z,7.20
2023-11-22T13:15:58.815Z,6.90
2023-11-22T13:18:50.096Z,7.90
2023-11-22T13:21:23.338Z,7.90
2023-11-22T13:23:51.574Z,7.70
2023-11-22T13:26:47.767Z,7.80
2023-11-22T13:29:17.771Z,8.50
2023-11-22T13:31:50.418Z,7.10
2023-11-22T13:34:18.650Z,6.80
2023-11-22T13:36:47.149Z,6.80
2023-11-22T13:39:16.448Z,6.80
2023-11-22T13:41:51.922Z,6.70
2023-11-22T13:49:19.425Z,6.60
2023-11-22T13:51:55.651Z,7.60
2023-11-22T13:54:41.307Z,7.70
2023-11-22T13:57:21.503Z,7.60
2023-11-22T14:00:20.318Z,7.60
2023-11-22T14:03:06.630Z,8.10
2023-11-22T14:05:55.064Z,8.60
2023-11-22T14:08:47.146Z,7.30
2023-11-22T14:11:29.568Z,6.90
2023-11-22T14:14:01.569Z,7.30
2023-11-22T14:16:31.439Z,7.70
2023-11-22T14:18:59.331Z,7.10
2023-11-22T14:21:26.989Z,7.80
2023-11-22T14:23:59.496Z,8.00
2023-11-22T14:27:01.969Z,7.70
2023-11-22T14:29:38.423Z,8.70
2023-11-22T14:32:11.625Z,8.50
2023-11-22T14:35:18.064Z,7.70
2023-11-22T14:38:19.014Z,6.80
2023-11-22T14:45:53.765Z,6.90
2023-11-22T14:48:35.401Z,6.60
2023-11-22T14:51:11.941Z,7.40
2023-11-22T15:03:26.010Z,6.70
2023-11-22T15:06:19.685Z,6.30
2023-11-22T15:08:58.329Z,6.70
2023-11-22T15:11:27.189Z,6.50
2023-11-22T15:14:29.813Z,7.10
2023-11-22T15:16:57.710Z,4.90
2023-11-22T15:19:28.812Z,5.70
2023-11-22T15:22:39.880Z,6.50
2023-11-22T15:25:19.506Z,7.40
2023-11-22T15:27:49.804Z,7.10
2023-11-22T15:35:39.406Z,7.00
2023-11-22T15:38:36.794Z,6.70
2023-11-22T15:46:12.862Z,6.70
2023-11-22T15:49:40.286Z,7.10
2023-11-22T15:52:44.172Z,7.30
2023-11-22T15:56:05.618Z,7.80
2023-11-22T15:59:24.715Z,8.10
2023-11-22T16:02:25.128Z,8.80
2023-11-22T16:05:36.760Z,7.90
2023-11-22T16:08:22.841Z,7.50
2023-11-22T16:11:23.877Z,8.70
2023-11-22T16:14:37.938Z,8.50
2023-11-22T16:18:42.387Z,9.20
2023-11-22T16:21:45.747Z,9.80
2023-11-22T16:24:30.684Z,9.90
2023-11-22T16:27:15.286Z,10.90
2023-11-22T16:29:48.313Z,10.40
2023-11-22T16:32:19.290Z,9.80
2023-11-22T16:35:18.405Z,10.60
2023-11-22T16:38:04.488Z,8.90
2023-11-22T16:40:38.187Z,9.30
2023-11-22T16:43:12.491Z,8.30
2023-11-22T16:46:45.220Z,8.00
2023-11-22T16:50:26.399Z,7.30
2023-11-22T16:54:44.194Z,7.30
2023-11-22T16:58:07.366Z,7.30
2023-11-22T17:01:56.194Z,6.30
2023-11-22T17:05:44.288Z,6.60
2023-11-22T17:09:37.061Z,7.00
2023-11-22T17:13:11.691Z,6.80
2023-11-22T17:29:00.698Z,6.80
2023-11-22T17:32:49.401Z,6.80
2023-11-22T17:36:00.104Z,6.50
2023-11-22T17:43:41.841Z,5.90
2023-11-22T17:47:31.166Z,6.80
2023-11-22T17:50:55.582Z,6.90
2023-11-22T17:53:59.609Z,6.40
2023-11-22T17:57:28.371Z,6.40
2023-11-22T18:01:09.599Z,6.00
2023-11-22T18:04:19.279Z,5.70
2023-11-22T18:07:06.990Z,6.20
2023-11-22T18:10:41.657Z,6.00
2023-11-22T18:14:07.616Z,6.20
2023-11-22T18:17:28.532Z,6.20
2023-11-22T18:20:38.029Z,6.80
2023-11-22T18:23:59.980Z,6.90
2023-11-22T18:27:17.730Z,5.70
2023-11-22T18:33:18.696Z,8.20
2023-11-22T18:36:27.942Z,6.40
2023-11-22T18:40:10.013Z,7.10
2023-11-22T18:43:25.282Z,6.50
2023-11-22T18:46:12.030Z,5.70
2023-11-22T18:49:15.382Z,6.20
2023-11-22T18:52:12.715Z,6.30
2023-11-22T18:54:48.910Z,6.50
2023-11-22T18:57:27.546Z,8.20
2023-11-22T19:00:00.521Z,7.20
2023-11-22T19:02:33.867Z,6.70
2023-11-22T19:05:42.535Z,8.30
2023-11-22T19:08:35.456Z,8.70
2023-11-22T19:11:15.116Z,7.20
2023-11-22T19:14:02.819Z,7.00
2023-11-22T19:17:33.514Z,7.50
2023-11-22T19:21:13.001Z,7.20
2023-11-22T19:24:08.426Z,6.90
2023-11-22T19:26:59.449Z,7.60
2023-11-22T19:32:39.257Z,7.60
2023-11-22T19:35:34.870Z,7.00
2023-11-22T19:38:53.413Z,6.00
2023-11-22T19:42:03.028Z,6.70
2023-11-22T19:44:59.901Z,6.50
2023-11-22T19:48:06.437Z,5.80
2023-11-22T19:50:56.381Z,5.10
2023-11-22T19:53:30.390Z,5.00
2023-11-22T19:56:00.590Z,5.40
2023-11-22T19:58:39.394Z,7.00
2023-11-22T20:01:14.990Z,6.90
2023-11-22T20:03:48.653Z,7.20
2023-11-22T20:06:17.298Z,6.90
2023-11-22T20:09:21.409Z,8.50
2023-11-22T20:12:10.721Z,9.00
2023-11-22T20:15:02.750Z,6.80
2023-11-22T20:17:36.686Z,6.50
2023-11-22T20:20:33.459Z,5.70
2023-11-22T20:23:18.074Z,6.10
2023-11-22T20:28:31.768Z,4.10
2023-11-22T20:31:16.946Z,5.30
2023-11-22T20:33:49.846Z,3.60
2023-11-22T20:36:28.920Z,4.80
2023-11-22T20:48:45.012Z,4.90
2023-11-22T20:51:50.607Z,4.90
2023-11-22T20:55:24.992Z,5.10
2023-11-22T20:58:13.829Z,4.80
2023-11-22T21:00:54.762Z,5.30
2023-11-22T21:03:28.474Z,4.90
2023-11-22T21:06:00.355Z,4.20
2023-11-22T21:08:47.195Z,4.90
2023-11-22T21:16:26.853Z,4.80
2023-11-22T21:19:13.421Z,4.60
2023-11-22T21:21:41.043Z,4.30
2023-11-22T21:24:40.044Z,5.00
2023-11-22T21:27:10.107Z,5.20
2023-11-22T21:29:37.856Z,4.60
2023-11-22T21:32:06.100Z,4.70
2023-11-22T21:34:49.725Z,4.10
2023-11-22T21:42:16.280Z,4.80
2023-11-22T21:45:02.210Z,4.30
2023-11-22T21:47:43.625Z,4.70
2023-11-22T21:50:14.142Z,4.20
2023-11-22T21:52:42.012Z,4.30
2023-11-22T21:55:19.870Z,4.30
2023-11-22T21:57:48.283Z,3.70
2023-11-22T22:00:38.025Z,3.30
2023-11-22T22:03:06.067Z,3.70
2023-11-22T22:05:34.046Z,3.70
2023-11-22T22:08:04.881Z,3.70
2023-11-22T22:10:39.043Z,4.50
2023-11-22T22:13:11.225Z,4.50
2023-11-22T22:15:54.536Z,4.90
2023-11-22T22:18:26.787Z,4.40
2023-11-22T22:21:25.219Z,4.50
2023-11-22T22:24:37.514Z,4.90
2023-11-22T22:27:32.843Z,4.60
2023-11-22T22:30:03.888Z,4.20
2023-11-22T22:32:53.460Z,4.80
2023-11-22T22:35:41.339Z,4.70
2023-11-22T22:38:20.273Z,4.20
2023-11-22T22:41:16.423Z,4.50
2023-11-22T22:43:54.923Z,4.40
2023-11-22T22:46:59.704Z,5.10
2023-11-22T22:49:50.037Z,5.00
2023-11-22T22:52:43.647Z,4.90
2023-11-22T22:55:33.850Z,5.30
2023-11-22T22:58:21.998Z,4.80
2023-11-22T23:00:57.775Z,5.00
2023-11-22T23:03:52.617Z,4.60
2023-11-22T23:06:55.978Z,4.30
2023-11-22T23:10:05.234Z,4.50
2023-11-22T23:12:57.704Z,5.40
2023-11-22T23:15:30.335Z,5.10
2023-11-22T23:19:00.653Z,5.10
2023-11-22T23:22:04.845Z,6.40
2023-11-22T23:25:01.929Z,6.20
2023-11-22T23:27:53.834Z,6.60
2023-11-22T23:30:42.838Z,6.80
2023-11-22T23:33:43.847Z,5.70
2023-11-22T23:36:42.126Z,4.70
2023-11-22T23:39:52.583Z,4.80
2023-11-22T23:42:42.681Z,4.20
2023-11-22T23:45:53.357Z,5.30
2023-11-22T23:48:56.545Z,4.70
2023-11-22T23:52:05.504Z,5.10
2023-11-22T23:55:20.300Z,4.90
2023-11-22T23:58:32.409Z,4.10
